sensor_id;sensor_type;location;lat;lon;timestamp;pressure;altitude;pressure_sealevel;temperature;humidity
20015;BME280;61787;42.022;23.078;2024-03-23T00:52:38;96974.28;;;7.91;44.35
20015;BME280;61787;42.022;23.078;2024-03-23T00:54:39;96968.88;;;7.91;44.43
20015;BME280;61787;42.022;23.078;2024-03-23T00:55:43;96965.00;;;7.92;44.40
20015;BME280;61787;42.022;23.078;2024-03-23T00:56:43;96970.41;;;7.88;44.40
20015;BME280;61787;42.022;23.078;2024-03-23T00:57:44;96966.50;;;7.86;44.38
20015;BME280;61787;42.022;23.078;2024-03-23T00:58:45;96968.09;;;7.87;44.53
20015;BME280;61787;42.022;23.078;2024-03-23T00:59:45;96971.19;;;7.89;44.44
20015;BME280;61787;42.022;23.078;2024-03-23T01:00:46;96968.50;;;7.92;44.45
20015;BME280;61787;42.022;23.078;2024-03-23T01:01:46;96966.53;;;7.93;44.34
20015;BME280;61787;42.022;23.078;2024-03-23T01:02:47;96966.16;;;7.91;44.43
20015;BME280;61787;42.022;23.078;2024-03-23T01:03:48;96963.44;;;7.91;44.66
20015;BME280;61787;42.022;23.078;2024-03-23T01:04:48;96965.78;;;7.92;44.51
20015;BME280;61787;42.022;23.078;2024-03-23T01:05:49;96966.94;;;7.95;44.46
20015;BME280;61787;42.022;23.078;2024-03-23T01:06:49;96966.16;;;7.91;44.65
20015;BME280;61787;42.022;23.078;2024-03-23T01:07:50;96962.28;;;7.88;44.93
20015;BME280;61787;42.022;23.078;2024-03-23T01:08:51;96963.03;;;7.85;45.04
20015;BME280;61787;42.022;23.078;2024-03-23T01:09:52;96957.59;;;7.85;45.29
20015;BME280;61787;42.022;23.078;2024-03-23T01:11:03;96978.53;;;7.84;45.33
20015;BME280;61787;42.022;23.078;2024-03-23T01:12:05;96965.72;;;7.81;45.54
20015;BME280;61787;42.022;23.078;2024-03-23T01:13:05;96964.94;;;7.77;45.66
20015;BME280;61787;42.022;23.078;2024-03-23T01:14:06;96965.34;;;7.79;45.87
20015;BME280;61787;42.022;23.078;2024-03-23T01:15:48;96966.13;;;7.83;45.67
20015;BME280;61787;42.022;23.078;2024-03-23T01:16:44;96968.44;;;7.81;45.83
20015;BME280;61787;42.022;23.078;2024-03-23T01:17:45;96968.84;;;7.83;45.85
20015;BME280;61787;42.022;23.078;2024-03-23T01:18:45;96969.22;;;7.86;45.83
20015;BME280;61787;42.022;23.078;2024-03-23T01:19:47;96967.72;;;7.92;45.87
20015;BME280;61787;42.022;23.078;2024-03-23T01:20:48;96972.75;;;7.90;45.33
20015;BME280;61787;42.022;23.078;2024-03-23T01:21:48;96964.97;;;7.81;45.43
20015;BME280;61787;42.022;23.078;2024-03-23T01:22:49;96970.75;;;7.76;45.61
20015;BME280;61787;42.022;23.078;2024-03-23T01:23:50;96968.78;;;7.73;45.71
20015;BME280;61787;42.022;23.078;2024-03-23T01:24:51;96973.41;;;7.69;45.72
20015;BME280;61787;42.022;23.078;2024-03-23T01:25:54;96972.66;;;7.68;45.68
20015;BME280;61787;42.022;23.078;2024-03-23T01:26:55;96971.47;;;7.69;45.67
20015;BME280;61787;42.022;23.078;2024-03-23T01:27:56;96972.66;;;7.68;45.67
20015;BME280;61787;42.022;23.078;2024-03-23T01:28:56;96963.34;;;7.69;45.84
20015;BME280;61787;42.022;23.078;2024-03-23T01:29:57;96966.44;;;7.68;45.75
20015;BME280;61787;42.022;23.078;2024-03-23T01:30:57;96969.94;;;7.68;45.76
20015;BME280;61787;42.022;23.078;2024-03-23T01:31:58;96973.03;;;7.70;45.81
20015;BME280;61787;42.022;23.078;2024-03-23T01:32:59;96968.00;;;7.72;45.88
20015;BME280;61787;42.022;23.078;2024-03-23T01:33:59;96971.88;;;7.71;45.89
20015;BME280;61787;42.022;23.078;2024-03-23T01:35:00;96965.69;;;7.71;46.07
20015;BME280;61787;42.022;23.078;2024-03-23T01:36:01;96972.25;;;7.70;45.97
20015;BME280;61787;42.022;23.078;2024-03-23T01:37:02;96959.47;;;7.70;45.91
20015;BME280;61787;42.022;23.078;2024-03-23T01:38:03;96966.81;;;7.70;45.72
20015;BME280;61787;42.022;23.078;2024-03-23T01:39:03;96966.44;;;7.71;46.15
20015;BME280;61787;42.022;23.078;2024-03-23T01:40:04;96969.53;;;7.70;46.15
20015;BME280;61787;42.022;23.078;2024-03-23T01:41:05;96971.09;;;7.67;46.35
20015;BME280;61787;42.022;23.078;2024-03-23T01:42:06;96966.41;;;7.64;46.20
20015;BME280;61787;42.022;23.078;2024-03-23T01:43:07;96973.78;;;7.63;46.25
20015;BME280;61787;42.022;23.078;2024-03-23T01:44:08;96967.53;;;7.56;46.20
20015;BME280;61787;42.022;23.078;2024-03-23T01:45:09;96969.41;;;7.48;46.33
20015;BME280;61787;42.022;23.078;2024-03-23T01:46:13;96976.34;;;7.42;46.64
20015;BME280;61787;42.022;23.078;2024-03-23T01:47:14;96971.69;;;7.39;46.96
20015;BME280;61787;42.022;23.078;2024-03-23T01:48:14;96969.34;;;7.37;46.82
20015;BME280;61787;42.022;23.078;2024-03-23T01:49:15;96971.28;;;7.37;47.25
20015;BME280;61787;42.022;23.078;2024-03-23T01:50:16;96969.28;;;7.30;47.22
20015;BME280;61787;42.022;23.078;2024-03-23T01:51:17;96972.34;;;7.21;47.45
20015;BME280;61787;42.022;23.078;2024-03-23T01:52:19;96971.53;;;7.17;47.51
20015;BME280;61787;42.022;23.078;2024-03-23T01:53:19;96964.56;;;7.16;47.67
20015;BME280;61787;42.022;23.078;2024-03-23T01:54:23;96969.19;;;7.16;47.43
20015;BME280;61787;42.022;23.078;2024-03-23T01:55:24;96972.31;;;7.14;47.50
20015;BME280;61787;42.022;23.078;2024-03-23T01:56:25;96971.09;;;7.12;47.49
20015;BME280;61787;42.022;23.078;2024-03-23T01:57:26;96968.38;;;7.08;47.47
20015;BME280;61787;42.022;23.078;2024-03-23T01:58:26;96962.56;;;7.10;47.50
20015;BME280;61787;42.022;23.078;2024-03-23T01:59:27;96962.22;;;7.11;47.39
20015;BME280;61787;42.022;23.078;2024-03-23T02:00:28;96966.84;;;7.11;47.55
20015;BME280;61787;42.022;23.078;2024-03-23T02:01:28;96964.91;;;7.07;47.40
20015;BME280;61787;42.022;23.078;2024-03-23T02:02:29;96967.56;;;7.04;47.41
20015;BME280;61787;42.022;23.078;2024-03-23T02:03:29;96967.56;;;7.04;47.58
20015;BME280;61787;42.022;23.078;2024-03-23T02:04:30;96969.84;;;6.98;47.63
20015;BME280;61787;42.022;23.078;2024-03-23T02:05:31;96972.44;;;6.84;47.88
20015;BME280;61787;42.022;23.078;2024-03-23T02:06:32;96979.66;;;6.69;48.31
20015;BME280;61787;42.022;23.078;2024-03-23T02:07:33;96981.88;;;6.60;48.56
20015;BME280;61787;42.022;23.078;2024-03-23T02:08:35;96980.75;;;6.61;48.54
20015;BME280;61787;42.022;23.078;2024-03-23T02:09:35;96978.88;;;6.68;48.36
20015;BME280;61787;42.022;23.078;2024-03-23T02:10:36;96973.53;;;6.76;48.17
20015;BME280;61787;42.022;23.078;2024-03-23T02:11:36;96979.00;;;6.83;47.99
20015;BME280;61787;42.022;23.078;2024-03-23T02:12:37;96973.25;;;6.88;47.91
20015;BME280;61787;42.022;23.078;2024-03-23T02:13:37;96969.81;;;6.91;47.72
20015;BME280;61787;42.022;23.078;2024-03-23T02:14:38;96974.06;;;6.96;47.72
20015;BME280;61787;42.022;23.078;2024-03-23T02:15:39;96977.56;;;6.96;47.49
20015;BME280;61787;42.022;23.078;2024-03-23T02:16:39;96978.34;;;6.97;47.39
20015;BME280;61787;42.022;23.078;2024-03-23T02:17:40;96972.16;;;7.00;47.53
20015;BME280;61787;42.022;23.078;2024-03-23T02:18:41;96973.38;;;7.02;47.52
20015;BME280;61787;42.022;23.078;2024-03-23T02:19:41;96971.06;;;7.04;47.51
20015;BME280;61787;42.022;23.078;2024-03-23T02:20:42;96979.97;;;7.08;47.46
20015;BME280;61787;42.022;23.078;2024-03-23T02:21:43;96981.16;;;7.07;47.40
20015;BME280;61787;42.022;23.078;2024-03-23T02:22:43;96983.88;;;7.07;47.45
20015;BME280;61787;42.022;23.078;2024-03-23T02:23:44;96978.44;;;7.07;47.45
20015;BME280;61787;42.022;23.078;2024-03-23T02:24:44;96981.53;;;7.06;47.38
20015;BME280;61787;42.022;23.078;2024-03-23T02:25:45;96978.03;;;7.05;47.40
20015;BME280;61787;42.022;23.078;2024-03-23T02:26:46;96983.47;;;7.05;47.47
20015;BME280;61787;42.022;23.078;2024-03-23T02:27:48;96978.03;;;7.05;47.52
20015;BME280;61787;42.022;23.078;2024-03-23T02:28:49;96978.03;;;7.05;47.44
20015;BME280;61787;42.022;23.078;2024-03-23T02:29:50;96981.94;;;7.08;47.34
20015;BME280;61787;42.022;23.078;2024-03-23T02:30:51;96984.63;;;7.08;47.36
20015;BME280;61787;42.022;23.078;2024-03-23T02:31:52;96978.44;;;7.07;47.25
20015;BME280;61787;42.022;23.078;2024-03-23T02:32:52;96982.69;;;7.08;47.19
20015;BME280;61787;42.022;23.078;2024-03-23T02:33:53;96982.69;;;7.08;47.20
20015;BME280;61787;42.022;23.078;2024-03-23T02:34:54;96981.56;;;7.10;47.30
20015;BME280;61787;42.022;23.078;2024-03-23T02:35:56;96985.84;;;7.11;47.27
20015;BME280;61787;42.022;23.078;2024-03-23T02:36:57;96985.41;;;7.08;47.31
20015;BME280;61787;42.022;23.078;2024-03-23T02:37:57;96975.72;;;7.07;47.34
20015;BME280;61787;42.022;23.078;2024-03-23T02:38:58;96993.53;;;7.08;47.45
20015;BME280;61787;42.022;23.078;2024-03-23T02:39:58;96983.13;;;7.11;47.31
20015;BME280;61787;42.022;23.078;2024-03-23T02:41:05;96982.72;;;7.12;47.36
20015;BME280;61787;42.022;23.078;2024-03-23T02:42:06;96987.00;;;7.13;47.20
20015;BME280;61787;42.022;23.078;2024-03-23T02:43:06;96982.72;;;7.12;47.29
20015;BME280;61787;42.022;23.078;2024-03-23T02:44:07;96982.28;;;7.06;47.43
20015;BME280;61787;42.022;23.078;2024-03-23T02:45:08;96982.59;;;6.98;47.74
20015;BME280;61787;42.022;23.078;2024-03-23T02:46:09;96982.56;;;6.94;47.73
20015;BME280;61787;42.022;23.078;2024-03-23T02:47:09;96975.59;;;6.90;47.77
20015;BME280;61787;42.022;23.078;2024-03-23T02:48:10;96981.38;;;6.88;47.88
20015;BME280;61787;42.022;23.078;2024-03-23T02:49:10;96981.75;;;6.86;48.01
20015;BME280;61787;42.022;23.078;2024-03-23T02:50:11;96983.69;;;6.86;48.05
20015;BME280;61787;42.022;23.078;2024-03-23T02:51:12;96982.50;;;6.83;48.21
20015;BME280;61787;42.022;23.078;2024-03-23T02:52:13;96985.19;;;6.83;48.16
20015;BME280;61787;42.022;23.078;2024-03-23T02:53:13;96986.78;;;6.84;48.19
20015;BME280;61787;42.022;23.078;2024-03-23T02:54:14;96985.19;;;6.83;48.03
20015;BME280;61787;42.022;23.078;2024-03-23T02:55:15;96989.06;;;6.82;48.02
20015;BME280;61787;42.022;23.078;2024-03-23T02:56:15;96985.97;;;6.80;48.10
20015;BME280;61787;42.022;23.078;2024-03-23T02:57:17;96987.09;;;6.79;48.30
20015;BME280;61787;42.022;23.078;2024-03-23T02:58:17;96987.09;;;6.79;48.21
20015;BME280;61787;42.022;23.078;2024-03-23T02:59:18;96993.66;;;6.78;48.37
20015;BME280;61787;42.022;23.078;2024-03-23T03:00:19;96996.00;;;6.80;48.47
20015;BME280;61787;42.022;23.078;2024-03-23T03:01:19;96989.44;;;6.81;48.58
20015;BME280;61787;42.022;23.078;2024-03-23T03:02:20;96992.16;;;6.81;48.57
20015;BME280;61787;42.022;23.078;2024-03-23T03:03:21;96991.78;;;6.82;48.52
20015;BME280;61787;42.022;23.078;2024-03-23T03:04:22;96994.13;;;6.84;48.36
20015;BME280;61787;42.022;23.078;2024-03-23T03:05:22;96990.59;;;6.80;48.25
20015;BME280;61787;42.022;23.078;2024-03-23T03:06:26;96995.97;;;6.76;48.35
20015;BME280;61787;42.022;23.078;2024-03-23T03:07:27;96994.81;;;6.74;48.37
20015;BME280;61787;42.022;23.078;2024-03-23T03:08:28;96993.59;;;6.71;48.48
20015;BME280;61787;42.022;23.078;2024-03-23T03:09:28;96990.84;;;6.67;48.41
20015;BME280;61787;42.022;23.078;2024-03-23T03:10:29;96987.78;;;6.69;48.47
20015;BME280;61787;42.022;23.078;2024-03-23T03:11:31;96999.78;;;6.68;48.49
20015;BME280;61787;42.022;23.078;2024-03-23T03:12:32;96993.19;;;6.69;48.57
20015;BME280;61787;42.022;23.078;2024-03-23T03:13:32;96999.81;;;6.72;48.54
20015;BME280;61787;42.022;23.078;2024-03-23T03:14:33;96996.69;;;6.69;48.47
20015;BME280;61787;42.022;23.078;2024-03-23T03:15:34;96995.03;;;6.58;48.82
20015;BME280;61787;42.022;23.078;2024-03-23T03:16:35;96994.19;;;6.50;49.06
20015;BME280;61787;42.022;23.078;2024-03-23T03:17:35;96996.84;;;6.46;49.13
20015;BME280;61787;42.022;23.078;2024-03-23T03:18:36;96994.19;;;6.50;49.14
20015;BME280;61787;42.022;23.078;2024-03-23T03:19:37;96998.06;;;6.53;49.06
20015;BME280;61787;42.022;23.078;2024-03-23T03:20:40;96992.69;;;6.56;49.03
20015;BME280;61787;42.022;23.078;2024-03-23T03:21:41;96992.72;;;6.60;48.93
20015;BME280;61787;42.022;23.078;2024-03-23T03:22:42;96995.84;;;6.62;48.84
20015;BME280;61787;42.022;23.078;2024-03-23T03:23:42;96990.41;;;6.62;48.90
20015;BME280;61787;42.022;23.078;2024-03-23T03:24:44;96998.13;;;6.60;48.98
20015;BME280;61787;42.022;23.078;2024-03-23T03:25:45;96998.13;;;6.60;48.93
20015;BME280;61787;42.022;23.078;2024-03-23T03:26:45;97000.06;;;6.59;49.00
20015;BME280;61787;42.022;23.078;2024-03-23T03:27:46;96998.13;;;6.60;49.06
20015;BME280;61787;42.022;23.078;2024-03-23T03:28:47;96990.38;;;6.58;49.07
20015;BME280;61787;42.022;23.078;2024-03-23T03:29:49;96994.31;;;6.64;49.09
20015;BME280;61787;42.022;23.078;2024-03-23T03:30:50;96995.50;;;6.67;48.94
20015;BME280;61787;42.022;23.078;2024-03-23T03:31:50;96997.44;;;6.66;49.06
20015;BME280;61787;42.022;23.078;2024-03-23T03:32:54;96997.44;;;6.66;49.07
20015;BME280;61787;42.022;23.078;2024-03-23T03:33:55;96993.16;;;6.65;49.03
20015;BME280;61787;42.022;23.078;2024-03-23T03:34:56;96986.94;;;6.61;49.02
20015;BME280;61787;42.022;23.078;2024-03-23T03:35:56;96989.56;;;6.54;49.10
20015;BME280;61787;42.022;23.078;2024-03-23T03:36:58;96985.25;;;6.49;49.16
20015;BME280;61787;42.022;23.078;2024-03-23T03:38:00;96991.84;;;6.48;49.46
20015;BME280;61787;42.022;23.078;2024-03-23T03:39:00;96990.63;;;6.46;49.45
20015;BME280;61787;42.022;23.078;2024-03-23T03:40:03;96999.94;;;6.45;49.22
20015;BME280;61787;42.022;23.078;2024-03-23T03:41:04;96999.53;;;6.43;49.36
20015;BME280;61787;42.022;23.078;2024-03-23T03:42:06;96996.00;;;6.42;49.26
20015;BME280;61787;42.022;23.078;2024-03-23T03:43:07;96996.41;;;6.41;49.39
20015;BME280;61787;42.022;23.078;2024-03-23T03:44:08;96997.97;;;6.42;49.39
20015;BME280;61787;42.022;23.078;2024-03-23T03:45:09;96993.28;;;6.39;49.46
20015;BME280;61787;42.022;23.078;2024-03-23T03:46:09;96989.44;;;6.40;49.51
20015;BME280;61787;42.022;23.078;2024-03-23T03:47:11;96997.19;;;6.41;49.49
20015;BME280;61787;42.022;23.078;2024-03-23T03:48:11;96996.41;;;6.41;49.40
20015;BME280;61787;42.022;23.078;2024-03-23T03:49:12;96988.66;;;6.39;49.43
20015;BME280;61787;42.022;23.078;2024-03-23T03:50:13;97003.28;;;6.35;49.45
20015;BME280;61787;42.022;23.078;2024-03-23T03:51:13;97000.19;;;6.33;49.41
20015;BME280;61787;42.022;23.078;2024-03-23T03:52:14;96997.84;;;6.31;49.47
20015;BME280;61787;42.022;23.078;2024-03-23T03:53:15;96997.06;;;6.30;49.47
20015;BME280;61787;42.022;23.078;2024-03-23T03:54:16;97000.91;;;6.29;49.72
20015;BME280;61787;42.022;23.078;2024-03-23T03:55:17;96993.16;;;6.28;49.83
20015;BME280;61787;42.022;23.078;2024-03-23T03:56:17;97000.09;;;6.25;49.91
20015;BME280;61787;42.022;23.078;2024-03-23T03:57:18;96994.59;;;6.18;50.01
20015;BME280;61787;42.022;23.078;2024-03-23T03:58:19;96999.63;;;6.16;50.05
20015;BME280;61787;42.022;23.078;2024-03-23T03:59:20;96994.88;;;6.09;50.34
20015;BME280;61787;42.022;23.078;2024-03-23T04:00:21;97006.84;;;6.05;50.50
20015;BME280;61787;42.022;23.078;2024-03-23T04:01:21;97004.13;;;6.05;50.66
20015;BME280;61787;42.022;23.078;2024-03-23T04:02:22;96998.28;;;6.03;50.75
20015;BME280;61787;42.022;23.078;2024-03-23T04:03:22;96999.03;;;6.00;50.84
20015;BME280;61787;42.022;23.078;2024-03-23T04:04:23;97008.28;;;5.99;50.79
20015;BME280;61787;42.022;23.078;2024-03-23T04:05:24;96998.13;;;5.92;50.78
20015;BME280;61787;42.022;23.078;2024-03-23T04:06:25;96995.81;;;5.90;51.13
20015;BME280;61787;42.022;23.078;2024-03-23T04:07:25;96998.50;;;5.90;50.98
20015;BME280;61787;42.022;23.078;2024-03-23T04:08:26;97005.88;;;5.93;51.20
20015;BME280;61787;42.022;23.078;2024-03-23T04:09:27;97006.66;;;5.94;51.23
20015;BME280;61787;42.022;23.078;2024-03-23T04:10:27;97005.50;;;5.95;51.11
20015;BME280;61787;42.022;23.078;2024-03-23T04:11:28;97004.72;;;5.95;51.25
20015;BME280;61787;42.022;23.078;2024-03-23T04:12:29;97008.22;;;5.95;51.29
20015;BME280;61787;42.022;23.078;2024-03-23T04:13:29;97005.88;;;5.93;51.19
20015;BME280;61787;42.022;23.078;2024-03-23T04:14:30;97009.81;;;5.96;51.35
20015;BME280;61787;42.022;23.078;2024-03-23T04:15:30;97000.09;;;5.95;51.31
20015;BME280;61787;42.022;23.078;2024-03-23T04:16:34;97008.56;;;5.93;51.18
20015;BME280;61787;42.022;23.078;2024-03-23T04:17:35;97011.28;;;5.93;51.52
20015;BME280;61787;42.022;23.078;2024-03-23T04:18:36;97011.66;;;5.92;51.31
20015;BME280;61787;42.022;23.078;2024-03-23T04:19:37;97005.50;;;5.95;51.24
20015;BME280;61787;42.022;23.078;2024-03-23T04:20:37;97013.69;;;5.99;51.08
20015;BME280;61787;42.022;23.078;2024-03-23T04:21:38;97015.16;;;5.92;50.94
20015;BME280;61787;42.022;23.078;2024-03-23T04:22:39;97012.44;;;5.92;50.93
20015;BME280;61787;42.022;23.078;2024-03-23T04:23:40;97019.72;;;5.88;51.10
20015;BME280;61787;42.022;23.078;2024-03-23T04:24:41;97014.31;;;5.88;51.10
20015;BME280;61787;42.022;23.078;2024-03-23T04:25:41;97016.00;;;5.70;51.21
20015;BME280;61787;42.022;23.078;2024-03-23T04:26:43;97021.25;;;5.59;51.65
20015;BME280;61787;42.022;23.078;2024-03-23T04:27:43;97015.22;;;5.43;52.01
20015;BME280;61787;42.022;23.078;2024-03-23T04:28:44;97013.59;;;5.38;52.31
20015;BME280;61787;42.022;23.078;2024-03-23T04:29:51;97011.66;;;5.35;52.42
20015;BME280;61787;42.022;23.078;2024-03-23T04:30:51;97012.84;;;5.38;52.34
20015;BME280;61787;42.022;23.078;2024-03-23T04:31:52;97013.28;;;5.43;52.12
20015;BME280;61787;42.022;23.078;2024-03-23T04:32:53;97012.22;;;5.48;52.24
20015;BME280;61787;42.022;23.078;2024-03-23T04:33:54;97016.06;;;5.47;52.33
20015;BME280;61787;42.022;23.078;2024-03-23T04:34:54;97008.75;;;5.47;52.38
20015;BME280;61787;42.022;23.078;2024-03-23T04:35:55;97010.34;;;5.52;52.32
20015;BME280;61787;42.022;23.078;2024-03-23T04:36:55;97017.38;;;5.57;51.98
20015;BME280;61787;42.022;23.078;2024-03-23T04:37:56;97014.34;;;5.62;51.73
20015;BME280;61787;42.022;23.078;2024-03-23T04:38:59;97013.19;;;5.63;51.69
20015;BME280;61787;42.022;23.078;2024-03-23T04:40:01;97016.25;;;5.61;51.71
20015;BME280;61787;42.022;23.078;2024-03-23T04:41:02;97013.97;;;5.63;51.89
20015;BME280;61787;42.022;23.078;2024-03-23T04:42:03;97018.25;;;5.64;51.52
20015;BME280;61787;42.022;23.078;2024-03-23T04:43:04;97016.72;;;5.67;51.57
20015;BME280;61787;42.022;23.078;2024-03-23T04:44:05;97020.28;;;5.71;51.53
20015;BME280;61787;42.022;23.078;2024-03-23T04:45:06;97018.34;;;5.71;51.44
20015;BME280;61787;42.022;23.078;2024-03-23T04:46:06;97022.22;;;5.74;51.35
20015;BME280;61787;42.022;23.078;2024-03-23T04:47:07;97018.44;;;5.79;51.23
20015;BME280;61787;42.022;23.078;2024-03-23T04:48:08;97021.91;;;5.79;51.29
20015;BME280;61787;42.022;23.078;2024-03-23T04:49:08;97019.22;;;5.79;51.25
20015;BME280;61787;42.022;23.078;2024-03-23T04:50:09;97019.56;;;5.78;51.34
20015;BME280;61787;42.022;23.078;2024-03-23T04:51:25;97024.25;;;5.81;51.75
20015;BME280;61787;42.022;23.078;2024-03-23T04:52:26;97027.31;;;5.79;51.39
20015;BME280;61787;42.022;23.078;2024-03-23T04:53:27;97021.88;;;5.76;51.68
20015;BME280;61787;42.022;23.078;2024-03-23T04:54:31;97020.38;;;5.78;51.27
20015;BME280;61787;42.022;23.078;2024-03-23T04:55:32;97028.06;;;5.76;51.33
20015;BME280;61787;42.022;23.078;2024-03-23T04:56:33;97024.16;;;5.73;51.35
20015;BME280;61787;42.022;23.078;2024-03-23T04:57:34;97026.09;;;5.73;51.48
20015;BME280;61787;42.022;23.078;2024-03-23T04:58:34;97027.97;;;5.69;51.45
20015;BME280;61787;42.022;23.078;2024-03-23T04:59:35;97023.34;;;5.69;51.54
20015;BME280;61787;42.022;23.078;2024-03-23T05:00:35;97019.06;;;5.68;51.71
20015;BME280;61787;42.022;23.078;2024-03-23T05:01:36;97020.28;;;5.71;51.65
20015;BME280;61787;42.022;23.078;2024-03-23T05:02:39;97024.16;;;5.73;51.68
20015;BME280;61787;42.022;23.078;2024-03-23T05:03:39;97021.09;;;5.75;51.63
20015;BME280;61787;42.022;23.078;2024-03-23T05:04:40;97031.19;;;5.78;51.60
20015;BME280;61787;42.022;23.078;2024-03-23T05:05:41;97026.56;;;5.79;51.50
20015;BME280;61787;42.022;23.078;2024-03-23T05:06:41;97028.16;;;5.83;51.57
20015;BME280;61787;42.022;23.078;2024-03-23T05:07:42;97027.31;;;5.79;51.59
20015;BME280;61787;42.022;23.078;2024-03-23T05:08:42;97028.50;;;5.78;51.67
20015;BME280;61787;42.022;23.078;2024-03-23T05:09:43;97019.53;;;5.74;51.69
20015;BME280;61787;42.022;23.078;2024-03-23T05:10:43;97022.47;;;5.62;51.58
20015;BME280;61787;42.022;23.078;2024-03-23T05:11:44;97027.13;;;5.65;51.85
20015;BME280;61787;42.022;23.078;2024-03-23T05:12:45;97025.28;;;5.69;51.78
20015;BME280;61787;42.022;23.078;2024-03-23T05:13:46;97033.84;;;5.74;51.64
20015;BME280;61787;42.022;23.078;2024-03-23T05:14:46;97025.41;;;5.80;51.72
20015;BME280;61787;42.022;23.078;2024-03-23T05:15:53;97031.28;;;5.85;51.58
20015;BME280;61787;42.022;23.078;2024-03-23T05:16:54;97027.84;;;5.88;51.43
20015;BME280;61787;42.022;23.078;2024-03-23T05:17:55;97033.28;;;5.92;51.50
20015;BME280;61787;42.022;23.078;2024-03-23T05:18:55;97029.09;;;5.95;51.26
20015;BME280;61787;42.022;23.078;2024-03-23T05:19:56;97030.22;;;5.93;51.13
20015;BME280;61787;42.022;23.078;2024-03-23T05:20:58;97031.66;;;5.84;51.43
20015;BME280;61787;42.022;23.078;2024-03-23T05:21:59;97034.63;;;5.75;51.58
20015;BME280;61787;42.022;23.078;2024-03-23T05:23:00;97029.25;;;5.79;51.65
20015;BME280;61787;42.022;23.078;2024-03-23T05:24:00;97023.91;;;5.82;51.71
20015;BME280;61787;42.022;23.078;2024-03-23T05:25:01;97028.28;;;5.90;51.68
20015;BME280;61787;42.022;23.078;2024-03-23T05:26:04;97031.78;;;5.95;51.49
20015;BME280;61787;42.022;23.078;2024-03-23T05:27:05;97035.63;;;5.93;51.52
20015;BME280;61787;42.022;23.078;2024-03-23T05:28:06;97031.03;;;5.94;51.67
20015;BME280;61787;42.022;23.078;2024-03-23T05:29:07;97033.00;;;5.97;51.78
20015;BME280;61787;42.022;23.078;2024-03-23T05:30:11;97030.13;;;5.86;51.77
20015;BME280;61787;42.022;23.078;2024-03-23T05:31:11;97032.09;;;5.89;52.03
20015;BME280;61787;42.022;23.078;2024-03-23T05:32:12;97030.22;;;5.93;52.00
20015;BME280;61787;42.022;23.078;2024-03-23T05:33:13;97027.59;;;5.97;51.87
20015;BME280;61787;42.022;23.078;2024-03-23T05:34:13;97034.63;;;6.02;51.56
20015;BME280;61787;42.022;23.078;2024-03-23T05:35:14;97030.75;;;6.03;51.52
20015;BME280;61787;42.022;23.078;2024-03-23T05:36:15;97032.69;;;6.02;51.63
20015;BME280;61787;42.022;23.078;2024-03-23T05:37:15;97031.50;;;6.00;51.71
20015;BME280;61787;42.022;23.078;2024-03-23T05:38:16;97033.03;;;6.01;51.88
20015;BME280;61787;42.022;23.078;2024-03-23T05:39:16;97028.03;;;6.03;51.99
20015;BME280;61787;42.022;23.078;2024-03-23T05:40:17;97033.50;;;6.06;51.89
20015;BME280;61787;42.022;23.078;2024-03-23T05:41:18;97035.38;;;6.02;51.89
20015;BME280;61787;42.022;23.078;2024-03-23T05:42:18;97032.94;;;5.93;51.99
20015;BME280;61787;42.022;23.078;2024-03-23T05:43:19;97030.97;;;5.90;52.08
20015;BME280;61787;42.022;23.078;2024-03-23T05:44:20;97028.16;;;5.83;52.35
20015;BME280;61787;42.022;23.078;2024-03-23T05:45:20;97024.22;;;5.77;52.47
20015;BME280;61787;42.022;23.078;2024-03-23T05:46:21;97028.78;;;5.73;52.59
20015;BME280;61787;42.022;23.078;2024-03-23T05:47:22;97024.31;;;5.84;52.64
20015;BME280;61787;42.022;23.078;2024-03-23T05:48:23;97029.09;;;5.95;52.23
20015;BME280;61787;42.022;23.078;2024-03-23T05:49:23;97025.78;;;6.05;52.20
20015;BME280;61787;42.022;23.078;2024-03-23T05:50:25;97031.28;;;6.12;51.82
20015;BME280;61787;42.022;23.078;2024-03-23T05:51:26;97027.84;;;6.19;51.84
20015;BME280;61787;42.022;23.078;2024-03-23T05:52:26;97027.16;;;6.25;51.75
20015;BME280;61787;42.022;23.078;2024-03-23T05:53:27;97026.06;;;6.30;51.50
20015;BME280;61787;42.022;23.078;2024-03-23T05:54:30;97026.16;;;6.37;51.64
20015;BME280;61787;42.022;23.078;2024-03-23T05:55:31;97025.81;;;6.42;51.38
20015;BME280;61787;42.022;23.078;2024-03-23T05:56:32;97025.81;;;6.42;51.46
20015;BME280;61787;42.022;23.078;2024-03-23T05:57:33;97021.91;;;6.40;51.52
20015;BME280;61787;42.022;23.078;2024-03-23T05:58:34;97030.03;;;6.40;51.63
20015;BME280;61787;42.022;23.078;2024-03-23T05:59:34;97031.19;;;6.39;51.62
20015;BME280;61787;42.022;23.078;2024-03-23T06:00:35;97024.63;;;6.40;51.21
20015;BME280;61787;42.022;23.078;2024-03-23T06:01:35;97031.13;;;6.35;51.63
20015;BME280;61787;42.022;23.078;2024-03-23T06:02:36;97030.38;;;6.35;51.77
20015;BME280;61787;42.022;23.078;2024-03-23T06:03:37;97027.22;;;6.29;52.04
20015;BME280;61787;42.022;23.078;2024-03-23T06:04:37;97024.94;;;6.35;56.51
20015;BME280;61787;42.022;23.078;2024-03-23T06:05:38;97027.81;;;6.49;55.32
20015;BME280;61787;42.022;23.078;2024-03-23T06:06:39;97027.09;;;6.52;53.82
20015;BME280;61787;42.022;23.078;2024-03-23T06:07:40;97024.72;;;6.47;52.85
20015;BME280;61787;42.022;23.078;2024-03-23T06:08:40;97022.28;;;6.38;52.69
20015;BME280;61787;42.022;23.078;2024-03-23T06:09:41;97022.66;;;6.37;52.55
20015;BME280;61787;42.022;23.078;2024-03-23T06:10:42;97020.38;;;6.42;52.53
20015;BME280;61787;42.022;23.078;2024-03-23T06:11:43;97018.53;;;6.46;52.46
20015;BME280;61787;42.022;23.078;2024-03-23T06:12:43;97022.41;;;6.49;52.10
20015;BME280;61787;42.022;23.078;2024-03-23T06:13:44;97021.59;;;6.45;52.35
20015;BME280;61787;42.022;23.078;2024-03-23T06:14:44;97025.84;;;6.46;52.38
20015;BME280;61787;42.022;23.078;2024-03-23T06:15:45;97019.28;;;6.47;52.35
20015;BME280;61787;42.022;23.078;2024-03-23T06:16:47;97021.25;;;6.50;52.37